createdAt,value
2019-03-09T00:00:48.606Z,16.97
2019-03-09T00:03:17.289Z,15.63
2019-03-09T00:05:47.455Z,19.57
2019-03-09T00:08:15.489Z,17.15
2019-03-09T00:10:44.472Z,17.07
2019-03-09T00:13:12.369Z,19.37
2019-03-09T00:15:42.220Z,13.23
2019-03-09T00:18:12.980Z,17.43
2019-03-09T00:20:43.320Z,16.17
2019-03-09T00:23:33.515Z,18.23
2019-03-09T00:26:12.665Z,23.57
2019-03-09T00:28:48.015Z,17.67
2019-03-09T00:31:22.954Z,19.90
2019-03-09T00:33:51.006Z,23.77
2019-03-09T00:36:21.370Z,22.93
2019-03-09T00:38:49.399Z,20.73
2019-03-09T00:41:18.205Z,18.62
2019-03-09T00:43:46.246Z,17.67
2019-03-09T00:46:14.029Z,17.23
2019-03-09T00:48:41.983Z,17.98
2019-03-09T00:51:12.574Z,19.03
2019-03-09T00:53:40.445Z,14.07
2019-03-09T00:56:08.206Z,15.33
2019-03-09T00:58:36.544Z,20.03
2019-03-09T01:01:05.893Z,15.50
2019-03-09T01:03:33.948Z,18.83
2019-03-09T01:06:04.571Z,17.82
2019-03-09T01:08:32.721Z,18.90
2019-03-09T01:11:00.633Z,19.10
2019-03-09T01:13:28.613Z,15.83
2019-03-09T01:15:56.644Z,18.33
2019-03-09T01:18:24.602Z,18.43
2019-03-09T01:20:54.452Z,19.57
2019-03-09T01:23:22.484Z,14.47
2019-03-09T01:25:51.071Z,17.17
2019-03-09T01:28:19.003Z,13.77
2019-03-09T01:30:47.001Z,16.20
2019-03-09T01:33:15.454Z,14.65
2019-03-09T01:35:45.955Z,14.58
2019-03-09T01:38:13.884Z,14.30
2019-03-09T01:40:41.810Z,15.33
2019-03-09T01:43:12.327Z,12.90
2019-03-09T01:45:40.223Z,13.45
2019-03-09T01:48:09.154Z,15.85
2019-03-09T01:50:40.577Z,12.75
2019-03-09T01:53:08.616Z,16.70
2019-03-09T01:55:36.397Z,69.47
2019-03-09T01:58:04.394Z,127.27
2019-03-09T02:00:32.468Z,49.23
2019-03-09T02:03:00.480Z,16.30
2019-03-09T02:05:30.895Z,15.45
2019-03-09T02:07:58.811Z,17.25
2019-03-09T02:10:26.931Z,20.85
2019-03-09T02:12:54.831Z,17.95
2019-03-09T02:15:23.257Z,22.15
2019-03-09T02:17:53.714Z,21.33
2019-03-09T02:20:21.681Z,31.77
2019-03-09T02:22:49.586Z,28.00
2019-03-09T02:25:17.652Z,22.98
2019-03-09T02:27:45.562Z,18.15
2019-03-09T02:30:13.720Z,22.87
2019-03-09T02:32:41.600Z,19.77
2019-03-09T02:35:12.104Z,20.88
2019-03-09T02:37:40.789Z,17.60
2019-03-09T02:40:15.017Z,18.45
2019-03-09T02:42:43.581Z,18.45
2019-03-09T02:45:13.272Z,20.95
2019-03-09T02:47:41.913Z,19.30
2019-03-09T02:50:13.632Z,23.12
2019-03-09T02:52:41.581Z,38.60
2019-03-09T02:55:09.700Z,41.18
2019-03-09T02:57:37.596Z,37.23
2019-03-09T03:00:07.544Z,33.60
2019-03-09T03:02:42.351Z,28.30
2019-03-09T03:05:10.954Z,27.17
2019-03-09T03:07:39.693Z,34.05
2019-03-09T03:10:08.524Z,32.73
2019-03-09T03:12:36.459Z,26.57
2019-03-09T03:15:05.018Z,26.42
2019-03-09T03:17:35.255Z,24.32
2019-03-09T03:20:03.969Z,26.93
2019-03-09T03:22:31.767Z,26.17
2019-03-09T03:24:59.671Z,27.13
2019-03-09T03:27:27.984Z,29.98
2019-03-09T03:29:55.916Z,21.42
2019-03-09T03:32:25.723Z,20.90
2019-03-09T03:34:53.590Z,14.85
2019-03-09T03:37:21.704Z,12.23
2019-03-09T03:39:49.726Z,17.30
2019-03-09T03:42:17.733Z,16.10
2019-03-09T03:44:48.509Z,14.05
2019-03-09T03:47:16.972Z,12.25
2019-03-09T03:49:44.926Z,12.90
2019-03-09T03:52:15.349Z,16.70
2019-03-09T03:54:43.343Z,14.07
2019-03-09T03:57:14.085Z,17.10
2019-03-09T03:59:44.549Z,15.58
2019-03-09T04:02:15.936Z,19.73
2019-03-09T04:04:43.897Z,18.57
2019-03-09T04:07:12.029Z,16.55
2019-03-09T04:09:40.272Z,19.87
2019-03-09T04:12:08.201Z,17.20
2019-03-09T04:14:36.181Z,16.85
2019-03-09T04:17:07.419Z,18.10
2019-03-09T04:19:36.912Z,15.28
2019-03-09T04:22:05.138Z,17.77
2019-03-09T04:24:33.240Z,19.82
2019-03-09T04:27:01.197Z,17.98
2019-03-09T04:29:28.978Z,20.02
2019-03-09T04:31:57.703Z,17.15
2019-03-09T04:34:25.664Z,16.48
2019-03-09T04:37:01.320Z,16.85
2019-03-09T04:39:29.125Z,14.10
2019-03-09T04:41:57.074Z,13.53
2019-03-09T04:44:27.090Z,14.78
2019-03-09T04:46:54.900Z,10.18
2019-03-09T04:49:24.243Z,12.55
2019-03-09T04:51:52.282Z,12.93
2019-03-09T04:54:20.304Z,10.20
2019-03-09T04:56:48.256Z,10.63
2019-03-09T04:59:16.076Z,12.10
2019-03-09T05:01:44.076Z,13.48
2019-03-09T05:04:51.047Z,11.88
2019-03-09T05:07:46.075Z,13.83
2019-03-09T05:10:26.907Z,18.05
2019-03-09T05:13:01.322Z,14.65
2019-03-09T05:15:31.814Z,14.73
2019-03-09T05:18:02.484Z,15.63
2019-03-09T05:20:32.652Z,15.65
2019-03-09T05:23:03.323Z,17.25
2019-03-09T05:25:31.119Z,24.12
2019-03-09T05:27:59.069Z,27.02
2019-03-09T05:30:40.285Z,17.00
2019-03-09T05:33:08.910Z,22.80
2019-03-09T05:35:39.636Z,15.58
2019-03-09T05:38:07.703Z,17.45
2019-03-09T05:40:35.583Z,15.75
2019-03-09T05:43:04.167Z,16.70
2019-03-09T05:45:32.141Z,13.45
2019-03-09T05:48:00.576Z,11.55
2019-03-09T05:50:28.442Z,11.20
2019-03-09T05:53:23.520Z,12.90
2019-03-09T05:55:52.037Z,12.78
2019-03-09T05:58:20.021Z,10.35
2019-03-09T06:00:47.986Z,9.55
2019-03-09T06:03:15.827Z,12.75
2019-03-09T06:06:16.120Z,14.57
2019-03-09T06:08:44.352Z,11.33
2019-03-09T06:11:15.055Z,6.67
2019-03-09T06:13:45.784Z,9.63
2019-03-09T06:16:16.322Z,17.07
2019-03-09T06:18:44.413Z,21.70
2019-03-09T06:21:12.432Z,15.43
2019-03-09T06:23:40.425Z,21.52
2019-03-09T06:26:08.220Z,15.90
2019-03-09T06:28:36.804Z,16.93
2019-03-09T06:31:07.328Z,23.32
2019-03-09T06:33:38.789Z,13.95
2019-03-09T06:36:26.035Z,13.83
2019-03-09T06:39:04.523Z,12.57
2019-03-09T06:41:45.371Z,11.73
2019-03-09T06:44:13.243Z,7.90
2019-03-09T06:46:41.135Z,10.10
2019-03-09T06:49:09.087Z,10.48
2019-03-09T06:51:36.845Z,10.80
2019-03-09T06:54:07.452Z,7.95
2019-03-09T06:56:35.312Z,7.57
2019-03-09T06:59:03.674Z,9.18
2019-03-09T07:01:31.648Z,12.80
2019-03-09T07:04:00.294Z,12.88
2019-03-09T07:06:28.334Z,9.45
2019-03-09T07:08:56.202Z,12.20
2019-03-09T07:11:24.093Z,10.93
2019-03-09T07:13:53.849Z,9.60
2019-03-09T07:16:22.635Z,11.48
2019-03-09T07:18:50.610Z,9.17
2019-03-09T07:21:18.533Z,8.68
2019-03-09T07:23:46.429Z,12.63
2019-03-09T07:26:14.426Z,9.83
2019-03-09T07:28:42.279Z,6.72
2019-03-09T07:31:12.319Z,7.17
2019-03-09T07:33:40.934Z,10.87
2019-03-09T07:36:08.934Z,8.50
2019-03-09T07:38:39.696Z,10.58
2019-03-09T07:41:07.508Z,8.43
2019-03-09T07:43:35.428Z,10.53
2019-03-09T07:46:04.168Z,6.43
2019-03-09T07:48:31.952Z,8.70
2019-03-09T07:50:59.916Z,5.30
2019-03-09T07:53:30.105Z,6.10
2019-03-09T07:55:57.960Z,11.33
2019-03-09T07:58:25.847Z,13.13
2019-03-09T08:00:53.801Z,7.10
2019-03-09T08:03:25.976Z,6.63
2019-03-09T08:05:56.669Z,5.53
2019-03-09T08:08:24.704Z,5.23
2019-03-09T08:10:53.496Z,5.60
2019-03-09T08:13:21.527Z,10.37
2019-03-09T08:15:49.650Z,7.87
2019-03-09T08:18:17.681Z,9.83
2019-03-09T08:20:46.762Z,7.47
2019-03-09T08:23:14.592Z,12.57
2019-03-09T08:25:42.589Z,8.80
2019-03-09T08:28:13.273Z,9.73
2019-03-09T08:30:41.312Z,7.23
2019-03-09T08:33:09.956Z,9.67
2019-03-09T08:35:38.127Z,13.87
2019-03-09T08:38:05.954Z,9.80
2019-03-09T08:40:33.969Z,7.13
2019-03-09T08:43:01.852Z,7.27
2019-03-09T08:45:29.908Z,4.97
2019-03-09T08:47:57.801Z,8.20
2019-03-09T08:50:26.291Z,9.97
2019-03-09T08:52:55.007Z,10.47
2019-03-09T08:55:22.923Z,6.80
2019-03-09T08:57:50.770Z,9.30
2019-03-09T09:00:23.918Z,4.63
2019-03-09T09:02:51.987Z,3.93
2019-03-09T09:05:21.410Z,4.27
2019-03-09T09:07:50.115Z,5.20
2019-03-09T09:10:18.209Z,4.27
2019-03-09T09:12:46.867Z,3.70
2019-03-09T09:15:15.227Z,3.87
2019-03-09T09:17:43.527Z,2.83
2019-03-09T09:20:14.411Z,4.33
2019-03-09T09:22:42.255Z,3.60
2019-03-09T09:25:10.599Z,2.90
2019-03-09T09:27:38.572Z,3.73
2019-03-09T09:30:08.852Z,4.87
2019-03-09T09:32:36.895Z,4.43
2019-03-09T09:35:06.127Z,3.97
2019-03-09T09:37:34.008Z,3.70
2019-03-09T09:40:02.570Z,9.07
2019-03-09T09:42:30.563Z,4.30
2019-03-09T09:44:58.499Z,7.00
2019-03-09T09:47:26.448Z,4.80
2019-03-09T09:49:54.332Z,5.13
2019-03-09T09:52:22.265Z,4.50
2019-03-09T09:54:50.161Z,3.27
2019-03-09T09:57:18.607Z,3.40
2019-03-09T09:59:46.409Z,3.13
2019-03-09T10:02:14.485Z,3.57
2019-03-09T10:04:42.370Z,2.93
2019-03-09T10:07:10.228Z,3.30
2019-03-09T10:09:38.091Z,2.50
2019-03-09T10:12:06.224Z,6.17
2019-03-09T10:14:34.142Z,16.70
2019-03-09T10:17:02.097Z,3.50
2019-03-09T10:19:30.526Z,2.27
2019-03-09T10:21:58.359Z,2.10
2019-03-09T10:24:26.233Z,3.03
2019-03-09T10:26:54.709Z,2.43
2019-03-09T10:29:23.221Z,3.87
2019-03-09T10:31:51.190Z,5.47
2019-03-09T10:34:18.972Z,2.77
2019-03-09T10:36:47.254Z,3.03
2019-03-09T10:39:15.119Z,2.87
2019-03-09T10:41:43.003Z,2.17
2019-03-09T10:44:11.001Z,1.93
2019-03-09T10:46:38.935Z,4.00
2019-03-09T10:49:06.938Z,3.07
2019-03-09T10:51:35.229Z,2.43
2019-03-09T10:54:03.319Z,1.70
2019-03-09T10:56:31.153Z,2.80
2019-03-09T10:58:59.259Z,3.43
2019-03-09T11:01:27.778Z,2.30
2019-03-09T11:03:55.741Z,2.25
2019-03-09T11:06:23.658Z,3.00
2019-03-09T11:08:51.631Z,1.97
2019-03-09T11:11:19.696Z,3.47
2019-03-09T11:13:51.849Z,4.33
2019-03-09T11:16:17.333Z,2.33
2019-03-09T11:18:45.523Z,2.00
2019-03-09T11:21:13.421Z,2.93
2019-03-09T11:23:41.537Z,2.10
2019-03-09T11:26:09.624Z,2.43
2019-03-09T11:28:37.589Z,2.90
2019-03-09T11:31:05.604Z,3.03
2019-03-09T11:33:33.523Z,2.93
2019-03-09T11:36:01.551Z,2.40
2019-03-09T11:38:29.526Z,2.80
2019-03-09T11:41:18.772Z,2.73
2019-03-09T11:43:38.936Z,3.30
2019-03-09T11:46:06.931Z,4.50
2019-03-09T11:48:34.863Z,2.40
2019-03-09T11:51:02.926Z,3.63
2019-03-09T11:53:33.069Z,3.10
2019-03-09T11:56:00.967Z,2.83
2019-03-09T11:58:28.896Z,6.00
2019-03-09T12:00:56.911Z,3.17
2019-03-09T12:03:24.920Z,4.30
2019-03-09T12:05:52.706Z,4.57
2019-03-09T12:08:22.457Z,2.33
2019-03-09T12:10:50.406Z,3.17
2019-03-09T12:13:18.550Z,2.90
2019-03-09T12:15:46.469Z,3.70
2019-03-09T12:18:14.324Z,3.43
2019-03-09T12:20:42.335Z,3.00
2019-03-09T12:23:21.285Z,2.53
2019-03-09T12:25:49.284Z,3.27
2019-03-09T12:28:17.328Z,5.27
2019-03-09T12:30:45.610Z,4.13
2019-03-09T12:33:13.563Z,3.47
2019-03-09T12:35:43.953Z,4.53
2019-03-09T12:38:11.387Z,5.13
2019-03-09T12:40:39.536Z,4.53
2019-03-09T12:43:18.999Z,5.37
2019-03-09T12:45:47.006Z,4.20
2019-03-09T12:48:14.939Z,4.47
2019-03-09T12:50:42.855Z,3.70
2019-03-09T12:53:10.824Z,4.93
2019-03-09T12:55:38.840Z,8.13
2019-03-09T12:58:06.776Z,2.83
2019-03-09T13:00:34.688Z,3.83
2019-03-09T13:03:02.611Z,5.37
2019-03-09T13:05:30.607Z,5.57
2019-03-09T13:07:58.612Z,5.43
2019-03-09T13:10:26.702Z,5.60
2019-03-09T13:12:54.765Z,3.70
2019-03-09T13:15:22.739Z,4.23
2019-03-09T13:17:50.547Z,4.33
2019-03-09T13:20:18.503Z,2.03
2019-03-09T13:22:46.487Z,2.00
2019-03-09T13:25:14.661Z,2.10
2019-03-09T13:27:42.550Z,1.03
2019-03-09T13:30:13.295Z,1.63
2019-03-09T13:32:43.169Z,0.97
2019-03-09T13:35:11.342Z,4.53
2019-03-09T13:37:39.116Z,1.80
2019-03-09T13:40:07.745Z,1.43
2019-03-09T13:42:35.681Z,2.07
2019-03-09T13:45:05.518Z,2.77
2019-03-09T13:47:33.513Z,4.60
2019-03-09T13:50:01.497Z,1.77
2019-03-09T13:52:29.320Z,1.27
2019-03-09T13:54:57.377Z,1.17
2019-03-09T13:57:25.172Z,2.33
2019-03-09T13:59:53.137Z,3.73
2019-03-09T14:02:20.965Z,3.10
2019-03-09T14:04:48.817Z,1.77
2019-03-09T14:07:16.847Z,3.83
2019-03-09T14:09:46.233Z,3.23
2019-03-09T14:12:14.768Z,3.43
2019-03-09T14:14:42.713Z,4.70
2019-03-09T14:17:11.597Z,3.90
2019-03-09T14:19:39.668Z,4.60
2019-03-09T14:22:07.605Z,2.17
2019-03-09T14:24:35.582Z,3.97
2019-03-09T14:27:05.216Z,1.60
2019-03-09T14:29:33.045Z,3.30
2019-03-09T14:32:00.826Z,2.97
2019-03-09T14:34:28.719Z,2.33
2019-03-09T14:36:57.506Z,4.87
2019-03-09T14:39:25.373Z,3.73
2019-03-09T14:41:53.527Z,3.20
2019-03-09T14:44:21.690Z,4.47
2019-03-09T14:46:49.714Z,2.70
2019-03-09T14:49:18.357Z,2.57
2019-03-09T14:51:46.333Z,3.07
2019-03-09T14:54:14.316Z,4.43
2019-03-09T14:56:42.140Z,4.23
2019-03-09T14:59:10.064Z,2.53
2019-03-09T15:01:37.937Z,2.77
2019-03-09T15:04:05.995Z,4.87
2019-03-09T15:06:35.517Z,2.17
2019-03-09T15:09:05.006Z,4.43
2019-03-09T15:11:33.985Z,5.80
2019-03-09T15:14:01.836Z,5.33
2019-03-09T15:16:30.361Z,5.60
2019-03-09T15:19:01.505Z,5.43
2019-03-09T15:21:29.475Z,5.00
2019-03-09T15:23:57.601Z,4.10
2019-03-09T15:26:25.660Z,8.33
2019-03-09T15:28:53.662Z,4.27
2019-03-09T15:31:21.712Z,6.27
2019-03-09T15:33:49.563Z,2.63
2019-03-09T15:36:17.417Z,2.57
2019-03-09T15:38:45.211Z,3.97
2019-03-09T15:41:13.277Z,5.80
2019-03-09T15:43:41.376Z,3.23
2019-03-09T15:46:09.346Z,27.73
2019-03-09T15:48:37.266Z,3.60
2019-03-09T15:51:05.303Z,4.30
2019-03-09T15:53:33.095Z,4.00
2019-03-09T15:56:01.314Z,7.63
2019-03-09T15:58:29.285Z,13.40
2019-03-09T16:00:57.430Z,2.67
2019-03-09T16:03:25.313Z,4.67
2019-03-09T16:05:53.376Z,4.10
2019-03-09T16:08:21.261Z,6.40
2019-03-09T16:10:49.186Z,5.97
2019-03-09T16:13:17.095Z,4.37
2019-03-09T16:15:45.045Z,4.70
2019-03-09T16:18:12.855Z,3.27
2019-03-09T16:20:40.716Z,10.47
2019-03-09T16:23:08.724Z,5.33
2019-03-09T16:25:36.716Z,4.93
2019-03-09T16:28:04.689Z,6.57
2019-03-09T16:30:32.729Z,10.67
2019-03-09T16:33:00.646Z,5.17
2019-03-09T16:35:28.530Z,5.20
2019-03-09T16:37:56.403Z,4.13
2019-03-09T16:40:24.419Z,4.07
2019-03-09T16:42:52.315Z,2.13
2019-03-09T16:45:20.291Z,3.60
2019-03-09T16:47:48.826Z,5.17
2019-03-09T16:50:16.811Z,5.87
2019-03-09T16:52:45.279Z,4.67
2019-03-09T16:55:13.976Z,3.70
2019-03-09T16:57:42.812Z,6.07
2019-03-09T17:00:14.191Z,6.00
2019-03-09T17:02:42.155Z,10.67
2019-03-09T17:05:10.411Z,12.17
2019-03-09T17:07:38.730Z,13.27
2019-03-09T17:10:06.815Z,7.57
2019-03-09T17:12:34.848Z,10.93
2019-03-09T17:15:08.479Z,16.77
2019-03-09T17:17:36.546Z,14.17
2019-03-09T17:20:08.001Z,9.73
2019-03-09T17:22:36.082Z,16.77
2019-03-09T17:25:05.903Z,15.33
2019-03-09T17:27:34.574Z,17.23
2019-03-09T17:30:02.561Z,8.33
2019-03-09T17:32:30.618Z,35.90
2019-03-09T17:34:58.496Z,35.30
2019-03-09T17:37:26.455Z,8.17
2019-03-09T17:39:54.474Z,5.90
2019-03-09T17:42:22.315Z,8.20
2019-03-09T17:44:50.106Z,10.30
2019-03-09T17:47:20.950Z,4.77
2019-03-09T17:49:48.747Z,9.23
2019-03-09T17:52:16.605Z,8.07
2019-03-09T17:54:44.392Z,10.82
2019-03-09T17:57:12.304Z,7.73
2019-03-09T17:59:40.132Z,6.43
2019-03-09T18:02:08.074Z,4.93
2019-03-09T18:04:36.023Z,7.97
2019-03-09T18:07:05.282Z,6.93
2019-03-09T18:09:34.169Z,5.23
2019-03-09T18:12:02.734Z,9.70
2019-03-09T18:14:30.684Z,9.33
2019-03-09T18:16:58.657Z,9.87
2019-03-09T18:19:26.474Z,15.73
2019-03-09T18:21:54.352Z,9.87
2019-03-09T18:24:24.914Z,3.57
2019-03-09T18:26:52.994Z,3.53
2019-03-09T18:29:22.418Z,2.50
2019-03-09T18:31:50.320Z,4.17
2019-03-09T18:34:18.241Z,5.63
2019-03-09T18:36:46.111Z,9.73
2019-03-09T18:39:14.089Z,9.53
2019-03-09T18:41:42.217Z,6.03
2019-03-09T18:44:10.003Z,4.00
2019-03-09T18:46:37.894Z,5.23
2019-03-09T18:49:05.865Z,6.57
2019-03-09T18:51:36.217Z,10.37
2019-03-09T18:54:04.319Z,8.03
2019-03-09T18:56:32.236Z,9.27
2019-03-09T18:59:00.195Z,8.27
2019-03-09T19:01:28.083Z,6.83
2019-03-09T19:03:56.048Z,8.00
2019-03-09T19:06:23.845Z,6.10
2019-03-09T19:08:51.728Z,8.33
2019-03-09T19:11:19.695Z,8.70
2019-03-09T19:13:47.637Z,7.10
2019-03-09T19:16:15.469Z,7.70
2019-03-09T19:18:43.940Z,9.20
2019-03-09T19:21:13.526Z,10.50
2019-03-09T19:23:41.845Z,18.73
2019-03-09T19:26:09.721Z,20.70
2019-03-09T19:28:37.604Z,14.53
2019-03-09T19:31:08.204Z,17.67
2019-03-09T19:33:36.136Z,12.93
2019-03-09T19:36:04.057Z,13.57
2019-03-09T19:38:31.919Z,10.93
2019-03-09T19:40:59.714Z,12.57
2019-03-09T19:43:27.592Z,12.60
2019-03-09T19:45:55.510Z,13.53
2019-03-09T19:48:23.565Z,16.60
2019-03-09T19:50:57.839Z,80.25
2019-03-09T19:53:25.806Z,11.80
2019-03-09T19:55:53.600Z,12.40
2019-03-09T19:58:21.674Z,11.03
2019-03-09T20:00:50.283Z,11.17
2019-03-09T20:03:18.220Z,12.00
2019-03-09T20:05:48.787Z,11.60
2019-03-09T20:08:18.140Z,13.27
2019-03-09T20:10:46.028Z,13.97
2019-03-09T20:13:14.962Z,15.40
2019-03-09T20:15:42.831Z,9.93
2019-03-09T20:18:10.810Z,11.00
2019-03-09T20:20:38.703Z,10.50
2019-03-09T20:23:06.590Z,14.97
2019-03-09T20:25:34.496Z,69.57
2019-03-09T20:28:05.123Z,93.43
2019-03-09T20:30:32.925Z,57.63
2019-03-09T20:33:03.978Z,5.73
2019-03-09T20:35:32.293Z,5.10
2019-03-09T20:38:00.167Z,6.00
2019-03-09T20:40:28.112Z,6.97
2019-03-09T20:42:56.088Z,5.47
2019-03-09T20:45:24.166Z,5.07
2019-03-09T20:47:52.097Z,4.87
2019-03-09T20:50:20.169Z,3.30
2019-03-09T20:52:48.250Z,3.83
2019-03-09T20:55:16.205Z,8.10
2019-03-09T20:57:44.051Z,7.10
2019-03-09T21:00:14.200Z,6.93
2019-03-09T21:02:42.220Z,4.47
2019-03-09T21:05:10.298Z,2.40
2019-03-09T21:07:38.184Z,1.90
2019-03-09T21:10:07.090Z,3.23
2019-03-09T21:12:35.147Z,3.77
2019-03-09T21:15:03.196Z,3.87
2019-03-09T21:17:31.012Z,5.20
2019-03-09T21:20:01.297Z,2.47
2019-03-09T21:22:29.244Z,4.13
2019-03-09T21:24:57.226Z,1.80
2019-03-09T21:27:28.138Z,2.33
2019-03-09T21:29:56.041Z,1.80
2019-03-09T21:32:23.832Z,3.67
2019-03-09T21:34:51.830Z,3.43
2019-03-09T21:37:19.649Z,6.43
2019-03-09T21:39:47.705Z,1.83
2019-03-09T21:42:15.693Z,3.27
2019-03-09T21:44:43.525Z,2.50
2019-03-09T21:47:11.317Z,4.17
2019-03-09T21:49:44.795Z,3.73
2019-03-09T21:52:20.410Z,2.20
2019-03-09T21:54:48.241Z,2.43
2019-03-09T21:57:16.051Z,2.40
2019-03-09T21:59:44.708Z,4.73
2019-03-09T22:02:12.495Z,2.33
2019-03-09T22:04:43.264Z,1.37
2019-03-09T22:07:16.282Z,1.67
2019-03-09T22:09:46.847Z,3.83
2019-03-09T22:12:17.104Z,5.27
2019-03-09T22:14:44.983Z,3.08
2019-03-09T22:17:12.990Z,4.30
2019-03-09T22:19:43.650Z,2.37
2019-03-09T22:22:11.430Z,2.40
2019-03-09T22:24:39.300Z,1.87
2019-03-09T22:27:07.098Z,2.37
2019-03-09T22:29:34.938Z,2.40
2019-03-09T22:32:04.955Z,2.47
2019-03-09T22:34:32.867Z,2.10
2019-03-09T22:37:00.754Z,2.97
2019-03-09T22:39:29.104Z,6.87
2019-03-09T22:41:57.049Z,1.80
2019-03-09T22:44:25.181Z,1.70
2019-03-09T22:46:53.066Z,2.70
2019-03-09T22:49:20.960Z,4.33
2019-03-09T22:51:50.531Z,3.35
2019-03-09T22:54:18.483Z,3.53
2019-03-09T22:56:46.378Z,1.87
2019-03-09T22:59:14.294Z,2.40
2019-03-09T23:01:42.740Z,2.50
2019-03-09T23:04:10.545Z,2.37
2019-03-09T23:06:38.369Z,2.40
2019-03-09T23:09:08.807Z,3.93
2019-03-09T23:11:36.737Z,1.37
2019-03-09T23:14:05.108Z,1.32
2019-03-09T23:16:33.903Z,2.33
2019-03-09T23:19:01.882Z,2.00
2019-03-09T23:21:29.972Z,1.57
2019-03-09T23:23:57.776Z,1.27
2019-03-09T23:26:25.618Z,2.20
2019-03-09T23:28:56.396Z,1.90
2019-03-09T23:31:24.260Z,2.22
2019-03-09T23:33:52.176Z,1.73
2019-03-09T23:36:20.164Z,1.70
2019-03-09T23:38:48.182Z,3.50
2019-03-09T23:41:16.225Z,4.03
2019-03-09T23:43:44.161Z,1.85
2019-03-09T23:46:12.224Z,2.80
2019-03-09T23:48:40.242Z,1.27
2019-03-09T23:51:08.845Z,1.47
2019-03-09T23:53:39.640Z,3.22
2019-03-09T23:56:07.702Z,1.03
2019-03-09T23:58:35.763Z,1.40
